23M weather

Clarke County Airport
Quitman, Mississippi, United States

Public forecast

Using degrees Fahrenheit for public forecast. Weather courtesy of forecast.io.

METAR (pilot weather report)

Closest report is Key Field, 14.9 nm (27.6 km) N. Retrieved 2019/08/22 06:58 UTC (59 minutes ago):

KMEI 220658Z AUTO 23003KT 10SM FEW005 23/22 A3002 RMK AO2 SLP160 T02280217

TAF (pilot weather forecast)

Closest forecast is Key Field, 14.9 nm (27.6 km) N. Retrieved 2019/08/22 06:34 UTC (1 hour ago):

TAF KMEI 220532Z 2206/2306 00000KT 3/4SM BR VV004 FM221000 00000KT 6SM BR OVC007 FM221400 20005KT P6SM OVC015 FM221600 20006KT P6SM BKN025 FM221900 20007KT P6SM VCTS BKN050CB FM222300 20003KT 6SM BR BKN250